Pays
Station

 

Conditions  météo  pour  Agra  -  Inde    Inde

  
29 °C
    
 
 

METAR pour Agra :

VIAG 180030Z 23003KT 6000 SKC 29/27 Q0999 NOSIG

 

Voici le bulletin pour Agra - Inde.
 
Le bulletin a été fait il y a 124 heures et 52 minutes, à 00:30 UTC .
Le vent soufflait à la vitesse de 1.5 mètres par seconde de Sud-ouest (230°).
 
La température était de 29 °C, avec un point de rosée à 27 °C.
La température ressentie était de 37 °C.
 
La pression atmosphérique était de 999 hPa.
L'humidité relative était de 89.0%.
 
Le ciel était clair.
 
La visibilité globale était de 6.0 kilomètres.
 

 
 
 

Pays :   A   B   C   D   E   F   G   H   I   J   K   L   M   N   O   P   Q   R   S   T   U   V   W   Y   Z

 

Partenaires :  Info Météo avec Met'info
Météo Marine avec MeteoMarine.net
Infos Site  |  Infos Légales  |  Crédits  |  Confidentialité
Contactez-nous  |  Ajouter aux favoris
© 2013-2018 METAR - Tous droits réservés